createdAt,value
2018-01-21T19:50:48.009Z,99985.89
2018-01-21T19:53:16.433Z,99984.30
2018-01-21T19:55:44.827Z,99976.39
2018-01-21T19:58:13.313Z,99978.27
2018-01-21T20:00:41.714Z,99979.04
2018-01-21T20:03:10.118Z,99978.07
2018-01-21T20:05:38.576Z,99974.70
2018-01-21T20:08:07.006Z,99971.45
2018-01-21T20:10:35.425Z,99979.97
2018-01-21T20:13:07.836Z,99974.43
2018-01-21T20:15:36.237Z,99969.92
2018-01-21T20:18:04.674Z,99965.17
2018-01-21T20:20:33.106Z,99962.31
2018-01-21T20:23:01.513Z,99958.47
2018-01-21T20:25:29.945Z,99956.89
2018-01-21T20:27:58.405Z,99959.52
2018-01-21T20:30:26.814Z,99954.14
2018-01-21T20:32:55.223Z,99940.03
2018-01-21T20:35:23.660Z,99935.20
2018-01-21T20:37:52.045Z,99935.41
2018-01-21T20:40:20.434Z,99929.77
2018-01-21T20:42:48.910Z,99915.80
2018-01-21T20:45:17.334Z,99903.90
2018-01-21T20:47:45.725Z,99907.06
2018-01-21T20:50:14.158Z,99900.78
2018-01-21T20:52:46.533Z,99902.96
2018-01-21T20:55:14.966Z,99898.27
2018-01-21T20:57:43.382Z,99887.24
2018-01-21T21:00:11.782Z,99887.56
2018-01-21T21:02:40.235Z,99885.34
2018-01-21T21:05:08.650Z,99887.88
2018-01-21T21:07:37.381Z,99886.45
2018-01-21T21:10:05.835Z,99891.81
2018-01-21T21:12:34.259Z,99897.60
2018-01-21T21:15:02.654Z,99885.69
2018-01-21T21:17:31.119Z,99881.41
2018-01-21T21:19:59.545Z,99883.36
2018-01-21T21:22:27.930Z,99887.71
2018-01-21T21:24:56.404Z,99885.13
2018-01-21T21:27:24.815Z,99878.58
2018-01-21T21:29:53.234Z,99868.15
2018-01-21T21:32:21.676Z,99874.83
2018-01-21T21:34:50.109Z,99882.70
2018-01-21T21:37:18.733Z,99892.23
2018-01-21T21:39:47.198Z,99882.15
2018-01-21T21:42:15.614Z,99874.48
2018-01-21T21:44:44.001Z,99868.88
2018-01-21T21:47:12.487Z,99870.73
2018-01-21T21:49:40.932Z,99870.55
2018-01-21T21:52:09.325Z,99870.98
2018-01-21T21:54:37.806Z,99868.84
2018-01-21T21:57:06.210Z,99868.20
2018-01-21T21:59:34.633Z,99851.70
2018-01-21T22:02:03.071Z,99836.57
2018-01-21T22:04:31.508Z,99826.09
2018-01-21T22:06:59.897Z,99818.47
2018-01-21T22:09:28.461Z,99816.73
2018-01-21T22:11:56.873Z,99836.45
2018-01-21T22:14:25.269Z,99856.68
2018-01-21T22:16:53.753Z,99858.00
2018-01-21T22:19:22.167Z,99851.73
2018-01-21T22:21:50.578Z,99846.14
2018-01-21T22:24:19.029Z,99836.22
2018-01-21T22:26:47.432Z,99834.23
2018-01-21T22:29:15.843Z,99827.85
2018-01-21T22:31:44.270Z,99808.23
2018-01-21T22:34:12.657Z,99785.38
2018-01-21T22:36:41.050Z,99794.45
2018-01-21T22:39:09.570Z,99798.24
2018-01-21T22:41:37.990Z,99802.98
2018-01-21T22:44:06.405Z,99803.34
2018-01-21T22:46:34.886Z,99791.16
2018-01-21T22:49:03.293Z,99807.66
2018-01-21T22:51:31.722Z,99827.91
2018-01-21T22:54:00.415Z,99808.17
2018-01-21T22:56:28.853Z,99807.56
2018-01-21T22:58:57.285Z,99792.02
2018-01-21T23:01:25.750Z,99780.87
2018-01-21T23:03:54.142Z,99777.16
2018-01-21T23:06:22.568Z,99766.98
2018-01-21T23:08:51.026Z,99770.83
2018-01-21T23:11:19.417Z,99768.61
2018-01-21T23:13:47.837Z,99765.66
2018-01-21T23:16:16.318Z,99760.85
2018-01-21T23:18:44.726Z,99753.84
2018-01-21T23:21:13.126Z,99750.49
2018-01-21T23:23:41.581Z,99758.48
2018-01-21T23:26:09.991Z,99760.06
2018-01-21T23:28:38.391Z,99749.52
2018-01-21T23:31:06.828Z,99749.11
2018-01-21T23:33:35.259Z,99756.00
2018-01-21T23:36:03.658Z,99744.78
2018-01-21T23:38:32.230Z,99742.86
2018-01-21T23:41:00.656Z,99732.99
2018-01-21T23:43:29.093Z,99740.45
2018-01-21T23:45:57.556Z,99743.20
2018-01-21T23:48:25.978Z,99732.31
2018-01-21T23:50:54.365Z,99723.14
2018-01-21T23:53:22.833Z,99719.94
2018-01-21T23:55:51.223Z,99726.26
2018-01-21T23:58:19.632Z,99725.92
